Time;durP1;ratioP1;P1;durP2;ratioP2;P2;SDS_P1;SDS_P2;PMS_P1;PMS_P2;Temp;Humidity;BMP_temperature;BMP_pressure;BME280_temperature;BME280_humidity;BME280_pressure;Samples;Min_cycle;Max_cycle;Signal;HPM_P1;HPM_P2
2021/12/30 00:02:44;;;;;;;2.80;2.70;;;13.10;99.90;;;;;;10495895;28;20282;-80
2021/12/30 00:07:48;;;;;;;2.80;2.70;;;13.00;99.90;;;;;;10513448;28;20242;-80
2021/12/30 00:12:52;;;;;;;2.60;2.50;;;13.00;99.90;;;;;;10507749;28;20223;-83
2021/12/30 00:18:04;;;;;;;2.60;2.50;;;13.00;99.90;;;;;;10514117;28;20212;-82
2021/12/30 00:23:09;;;;;;;2.90;2.77;;;12.90;99.90;;;;;;10532853;28;20228;-79
2021/12/30 00:28:16;;;;;;;2.60;2.50;;;12.80;99.90;;;;;;10516149;28;20217;-82
2021/12/30 00:33:19;;;;;;;2.90;2.70;;;12.90;99.90;;;;;;10516641;28;20250;-79
2021/12/30 00:38:23;;;;;;;2.70;2.60;;;12.90;99.90;;;;;;10508425;28;20213;-80
2021/12/30 00:43:25;;;;;;;2.60;2.50;;;12.90;99.90;;;;;;10517017;28;20192;-80
2021/12/30 00:48:27;;;;;;;2.60;2.50;;;12.90;99.90;;;;;;10510967;28;20231;-79
2021/12/30 00:53:34;;;;;;;2.30;2.20;;;12.90;99.90;;;;;;10495832;28;20220;-80
2021/12/30 00:58:41;;;;;;;2.40;2.20;;;12.90;99.90;;;;;;10509081;28;20215;-78
2021/12/30 01:03:46;;;;;;;2.20;2.10;;;12.90;99.90;;;;;;10511413;28;20271;-82
2021/12/30 01:08:49;;;;;;;2.23;2.07;;;12.80;99.90;;;;;;10503244;28;20250;-82
2021/12/30 01:13:59;;;;;;;1.90;1.80;;;12.80;99.90;;;;;;10525685;28;20224;-80
2021/12/30 01:19:15;;;;;;;2.10;2.00;;;12.80;99.90;;;;;;10535486;28;20227;-81
2021/12/30 01:24:18;;;;;;;1.80;1.70;;;12.80;99.90;;;;;;10531374;28;20219;-79
2021/12/30 01:29:21;;;;;;;2.23;1.67;;;12.80;99.90;;;;;;10542219;28;20204;-81
2021/12/30 01:34:23;;;;;;;1.80;1.70;;;12.80;99.90;;;;;;10543318;28;20733;-80
2021/12/30 01:39:26;;;;;;;1.43;1.33;;;12.90;99.90;;;;;;10536352;28;20276;-82
2021/12/30 01:44:29;;;;;;;1.53;1.43;;;12.90;99.90;;;;;;10547761;28;20250;-78
2021/12/30 01:49:31;;;;;;;1.70;1.60;;;12.90;99.90;;;;;;10543527;28;20204;-82
2021/12/30 01:54:34;;;;;;;1.83;1.53;;;13.00;99.90;;;;;;10512195;28;20577;-82
2021/12/30 01:59:37;;;;;;;1.57;1.50;;;13.00;99.90;;;;;;10533854;28;20208;-81
2021/12/30 02:04:39;;;;;;;1.30;1.30;;;13.00;99.90;;;;;;10520969;28;20216;-83
2021/12/30 02:09:42;;;;;;;2.70;1.70;;;13.00;99.90;;;;;;10539612;28;20203;-82
2021/12/30 02:14:44;;;;;;;1.50;1.40;;;12.90;99.90;;;;;;10540104;28;20222;-82
2021/12/30 02:19:46;;;;;;;1.80;1.40;;;12.90;99.90;;;;;;10532793;28;20203;-83
2021/12/30 02:24:50;;;;;;;2.10;1.50;;;12.90;99.90;;;;;;10536653;28;20591;-81
2021/12/30 02:29:53;;;;;;;1.60;1.50;;;12.80;99.90;;;;;;10534961;28;20195;-82
2021/12/30 02:34:55;;;;;;;4.10;1.80;;;12.90;99.90;;;;;;10534494;28;20278;-82
2021/12/30 02:39:58;;;;;;;1.90;1.50;;;12.90;99.90;;;;;;10521193;28;20750;-81
2021/12/30 02:45:00;;;;;;;1.87;1.50;;;12.90;99.90;;;;;;10534597;28;20220;-81
2021/12/30 02:50:03;;;;;;;1.70;1.60;;;12.90;99.90;;;;;;10533099;28;20200;-81
2021/12/30 02:55:07;;;;;;;1.57;1.47;;;12.90;99.90;;;;;;10517233;28;20220;-80
2021/12/30 03:00:11;;;;;;;1.43;1.33;;;12.90;99.90;;;;;;10535599;28;20586;-81
2021/12/30 03:05:18;;;;;;;2.27;2.00;;;13.00;99.90;;;;;;10523208;28;20223;-80
2021/12/30 03:10:24;;;;;;;1.53;1.40;;;13.00;99.90;;;;;;10547569;28;20750;-82
2021/12/30 03:15:27;;;;;;;1.63;1.40;;;13.00;99.90;;;;;;10529866;28;20228;-80
2021/12/30 03:20:32;;;;;;;1.30;1.20;;;13.10;99.90;;;;;;10521255;28;20198;-80
2021/12/30 03:25:36;;;;;;;1.60;1.50;;;13.10;99.90;;;;;;10537968;28;20218;-81
2021/12/30 03:30:38;;;;;;;2.13;1.43;;;13.10;99.90;;;;;;10530293;28;20211;-82
2021/12/30 03:35:40;;;;;;;1.60;1.50;;;13.10;99.90;;;;;;10534448;28;20226;-80
2021/12/30 03:40:44;;;;;;;4.30;1.20;;;13.20;99.90;;;;;;10516034;28;20206;-81
2021/12/30 03:45:46;;;;;;;2.30;1.10;;;13.20;99.90;;;;;;10515696;28;20291;-82
2021/12/30 03:50:49;;;;;;;1.73;1.30;;;13.20;99.90;;;;;;10538967;28;20214;-82
2021/12/30 03:55:53;;;;;;;1.97;1.43;;;13.20;99.90;;;;;;10541175;28;20310;-82
2021/12/30 04:00:55;;;;;;;1.10;1.10;;;13.20;99.90;;;;;;10531851;28;20210;-82
2021/12/30 04:05:57;;;;;;;1.30;1.20;;;13.30;99.90;;;;;;10526329;28;20302;-80
2021/12/30 04:11:01;;;;;;;1.00;1.00;;;13.30;99.90;;;;;;10516796;28;20227;-82
2021/12/30 04:16:04;;;;;;;1.00;1.00;;;13.40;99.90;;;;;;10534682;28;20308;-81
2021/12/30 04:21:06;;;;;;;1.10;1.00;;;13.40;99.90;;;;;;10527912;28;20263;-82
2021/12/30 04:26:09;;;;;;;1.93;1.50;;;13.40;99.90;;;;;;10540363;28;20216;-82
2021/12/30 04:31:12;;;;;;;1.70;1.60;;;13.40;99.90;;;;;;10531930;28;20990;-80
2021/12/30 04:36:14;;;;;;;1.83;1.73;;;13.40;99.90;;;;;;10534106;28;20259;-82
2021/12/30 04:41:18;;;;;;;1.30;1.20;;;13.40;99.90;;;;;;10535028;28;20596;-82
2021/12/30 04:46:20;;;;;;;1.50;1.40;;;13.40;99.90;;;;;;10540395;28;20567;-81
2021/12/30 04:51:22;;;;;;;1.47;1.37;;;13.40;99.90;;;;;;10545145;28;20232;-82
2021/12/30 04:56:26;;;;;;;1.40;1.30;;;13.40;99.90;;;;;;10521556;28;20216;-80
2021/12/30 05:01:28;;;;;;;1.40;1.30;;;13.40;99.90;;;;;;10521687;28;20867;-82
2021/12/30 05:06:31;;;;;;;1.23;0.90;;;13.40;99.90;;;;;;10543864;28;20762;-83
2021/12/30 05:11:35;;;;;;;3.03;2.50;;;13.40;99.90;;;;;;10535326;28;20651;-80
2021/12/30 05:16:38;;;;;;;1.43;0.90;;;13.40;99.90;;;;;;10544477;28;20224;-80
2021/12/30 05:21:40;;;;;;;0.80;0.80;;;13.40;99.90;;;;;;10540295;28;20283;-79
2021/12/30 05:26:44;;;;;;;0.60;0.50;;;13.40;99.90;;;;;;10527800;28;20218;-78
2021/12/30 05:31:46;;;;;;;1.20;1.10;;;13.50;99.90;;;;;;10539834;28;20192;-79
2021/12/30 05:36:48;;;;;;;0.80;0.80;;;13.50;99.90;;;;;;10536751;28;20266;-78
2021/12/30 05:41:51;;;;;;;1.20;1.20;;;13.50;99.90;;;;;;10537452;28;20260;-78
2021/12/30 05:46:53;;;;;;;1.00;0.90;;;13.60;99.90;;;;;;10529191;28;20260;-79
2021/12/30 05:51:55;;;;;;;1.20;1.20;;;13.60;99.90;;;;;;10537173;28;20283;-78
2021/12/30 05:56:59;;;;;;;2.83;2.63;;;13.60;99.90;;;;;;10537098;28;20223;-78
2021/12/30 06:02:01;;;;;;;0.80;0.80;;;13.60;99.90;;;;;;10532935;28;20204;-78
2021/12/30 06:07:05;;;;;;;1.33;1.23;;;13.60;99.90;;;;;;10541238;28;20241;-76
2021/12/30 06:12:09;;;;;;;1.40;0.80;;;13.60;99.90;;;;;;10530649;28;20204;-76
2021/12/30 06:17:13;;;;;;;2.57;2.33;;;13.60;99.90;;;;;;10535445;28;20311;-78
2021/12/30 06:22:15;;;;;;;0.97;0.97;;;13.60;99.90;;;;;;10535914;28;20202;-78
2021/12/30 06:27:18;;;;;;;0.80;0.80;;;13.60;99.90;;;;;;10537982;28;20228;-78
2021/12/30 06:32:20;;;;;;;1.00;1.00;;;13.60;99.90;;;;;;10530583;28;20303;-78
2021/12/30 06:37:23;;;;;;;0.80;0.80;;;13.50;99.90;;;;;;10544575;28;20608;-80
2021/12/30 06:42:26;;;;;;;1.37;0.80;;;13.50;99.90;;;;;;10541916;28;20237;-79
2021/12/30 06:47:28;;;;;;;0.93;0.90;;;13.50;99.90;;;;;;10556820;22;20223;-83
2021/12/30 06:52:31;;;;;;;0.97;0.97;;;13.50;99.90;;;;;;10558679;28;20721;-83
2021/12/30 06:57:35;;;;;;;0.97;0.97;;;13.60;99.90;;;;;;10523273;28;20220;-83
2021/12/30 07:02:37;;;;;;;1.10;1.00;;;13.60;99.90;;;;;;10540987;28;20608;-82
2021/12/30 07:07:39;;;;;;;1.20;1.20;;;13.50;99.90;;;;;;10535938;28;20228;-82
2021/12/30 07:12:43;;;;;;;1.23;1.23;;;13.50;99.90;;;;;;10535977;28;20544;-82
2021/12/30 07:17:45;;;;;;;1.90;1.27;;;13.50;99.90;;;;;;10526471;28;20290;-81
2021/12/30 07:22:47;;;;;;;1.10;1.10;;;13.50;99.90;;;;;;10514712;28;20223;-82
2021/12/30 07:27:52;;;;;;;1.13;1.10;;;13.50;99.90;;;;;;10538056;28;20219;-83
2021/12/30 07:32:55;;;;;;;1.73;1.63;;;13.50;99.90;;;;;;10532518;28;20192;-82
2021/12/30 07:37:57;;;;;;;1.80;1.70;;;13.40;99.90;;;;;;10549178;28;20290;-83
2021/12/30 07:43:01;;;;;;;1.57;1.17;;;13.40;99.90;;;;;;10523349;28;20254;-82
2021/12/30 07:48:03;;;;;;;1.27;1.27;;;13.40;99.90;;;;;;10522889;28;20238;-83
2021/12/30 07:53:05;;;;;;;1.50;1.50;;;13.40;99.90;;;;;;10542043;28;20730;-83
2021/12/30 07:58:09;;;;;;;2.50;1.30;;;13.40;99.90;;;;;;10544455;28;20216;-83
2021/12/30 08:03:11;;;;;;;0.93;0.93;;;13.50;99.90;;;;;;10538378;28;20626;-82
2021/12/30 08:08:13;;;;;;;0.97;0.97;;;13.50;99.90;;;;;;10545054;28;20638;-82
2021/12/30 08:13:17;;;;;;;1.40;1.00;;;13.50;99.90;;;;;;10540230;28;20624;-83
2021/12/30 08:18:19;;;;;;;1.37;1.27;;;13.60;99.90;;;;;;10546724;28;20220;-83
2021/12/30 08:23:21;;;;;;;1.43;1.10;;;13.60;99.90;;;;;;10548885;28;20299;-83
2021/12/30 08:28:27;;;;;;;1.80;1.70;;;13.60;99.90;;;;;;10534005;28;20227;-82
2021/12/30 08:33:29;;;;;;;1.40;1.40;;;13.70;99.90;;;;;;10548016;28;20196;-82
2021/12/30 08:38:32;;;;;;;1.67;1.57;;;13.70;99.90;;;;;;10519207;28;20212;-83
2021/12/30 08:43:35;;;;;;;1.33;1.33;;;13.70;99.90;;;;;;10501877;28;20243;-82
2021/12/30 08:48:38;;;;;;;1.00;1.00;;;13.70;99.90;;;;;;10525838;28;20224;-83
2021/12/30 08:53:41;;;;;;;1.80;1.70;;;13.80;99.90;;;;;;10520978;28;20249;-82
2021/12/30 08:58:44;;;;;;;1.43;1.43;;;13.80;99.90;;;;;;10500976;28;20559;-83
2021/12/30 09:03:46;;;;;;;0.93;0.93;;;13.80;99.90;;;;;;10507945;28;20227;-84
2021/12/30 09:08:49;;;;;;;1.00;1.00;;;13.80;99.90;;;;;;10523044;28;20213;-82
2021/12/30 09:13:52;;;;;;;1.30;1.30;;;13.80;99.90;;;;;;10517075;28;20197;-82
2021/12/30 09:18:54;;;;;;;0.80;0.80;;;13.90;99.90;;;;;;10520352;28;20224;-83
2021/12/30 09:23:56;;;;;;;2.30;1.30;;;14.00;99.90;;;;;;10536598;28;20208;-83
2021/12/30 09:29:00;;;;;;;1.27;1.27;;;14.10;99.90;;;;;;10537763;28;20237;-84
2021/12/30 09:34:02;;;;;;;1.10;1.10;;;14.20;99.90;;;;;;10546741;28;20227;-83
2021/12/30 09:39:07;;;;;;;1.10;1.10;;;14.30;99.90;;;;;;10544182;28;20220;-83
2021/12/30 09:44:12;;;;;;;0.80;0.80;;;14.40;99.90;;;;;;10523565;28;20219;-82
2021/12/30 09:49:17;;;;;;;0.70;0.70;;;14.50;99.90;;;;;;10529489;28;20224;-84
2021/12/30 09:54:19;;;;;;;1.13;1.10;;;14.50;99.90;;;;;;10547192;28;20207;-83
2021/12/30 09:59:24;;;;;;;1.10;1.10;;;14.60;99.90;;;;;;10542950;28;20420;-84
2021/12/30 10:04:30;;;;;;;1.40;1.30;;;14.60;99.90;;;;;;10529248;28;20215;-84
2021/12/30 10:09:46;;;;;;;0.97;0.97;;;14.70;99.90;;;;;;10548084;28;20191;-83
2021/12/30 10:14:54;;;;;;;1.50;1.40;;;14.70;99.90;;;;;;10531751;28;20230;-84
2021/12/30 10:20:20;;;;;;;1.27;1.27;;;14.70;99.90;;;;;;10532416;28;20207;-82
2021/12/30 10:25:28;;;;;;;1.20;1.13;;;14.70;99.90;;;;;;10542775;28;20219;-81
2021/12/30 10:30:32;;;;;;;1.20;1.13;;;14.70;99.90;;;;;;10520684;28;20625;-80
2021/12/30 10:35:35;;;;;;;1.10;1.00;;;14.60;99.90;;;;;;10540543;28;20220;-82
2021/12/30 10:40:43;;;;;;;2.17;1.30;;;14.60;99.90;;;;;;10503121;28;20199;-82
2021/12/30 10:46:06;;;;;;;0.90;0.90;;;14.50;99.90;;;;;;10507780;28;20857;-83
2021/12/30 10:51:13;;;;;;;1.60;1.53;;;14.50;99.90;;;;;;10533379;28;20196;-81
2021/12/30 10:56:37;;;;;;;1.03;1.03;;;14.60;99.90;;;;;;10522702;28;20859;-82
2021/12/30 11:01:42;;;;;;;1.30;1.30;;;14.80;99.90;;;;;;10518146;28;20219;-83
2021/12/30 11:06:46;;;;;;;1.10;1.10;;;14.90;99.90;;;;;;10487470;28;20255;-81
2021/12/30 11:11:52;;;;;;;1.10;1.10;;;15.00;99.90;;;;;;10510507;28;20643;-82
2021/12/30 11:17:04;;;;;;;1.80;1.70;;;15.10;99.90;;;;;;10540936;28;20583;-82
2021/12/30 11:22:09;;;;;;;2.53;2.23;;;15.10;99.90;;;;;;10532879;28;20203;-82
2021/12/30 11:27:13;;;;;;;0.97;0.87;;;15.10;99.90;;;;;;10536967;28;20231;-82
2021/12/30 11:32:19;;;;;;;1.73;1.40;;;15.30;99.90;;;;;;10538678;28;20200;-82
2021/12/30 11:37:21;;;;;;;1.47;1.37;;;15.30;99.90;;;;;;10541509;28;20243;-82
2021/12/30 11:42:25;;;;;;;1.10;1.10;;;15.40;99.90;;;;;;10528179;28;20211;-82
2021/12/30 11:47:41;;;;;;;0.93;0.93;;;15.40;99.90;;;;;;10535707;28;20227;-82
2021/12/30 11:52:56;;;;;;;0.67;0.67;;;15.40;99.90;;;;;;10532043;28;20200;-83
2021/12/30 11:58:40;;;;;;;1.33;1.23;;;15.50;99.90;;;;;;10530556;28;20241;-82
2021/12/30 12:03:44;;;;;;;1.17;1.17;;;15.60;99.90;;;;;;10513283;28;20204;-82
2021/12/30 12:08:47;;;;;;;0.80;0.80;;;15.70;99.90;;;;;;10523777;28;20597;-81
2021/12/30 12:13:53;;;;;;;1.90;1.10;;;15.80;99.90;;;;;;10524101;28;20204;-82
2021/12/30 12:19:06;;;;;;;0.90;0.90;;;15.90;99.90;;;;;;10539606;28;20220;-82
2021/12/30 12:24:41;;;;;;;1.13;1.07;;;15.90;99.90;;;;;;10512079;28;20220;-83
2021/12/30 12:29:49;;;;;;;0.83;0.83;;;16.00;99.90;;;;;;10378368;28;20198;-83
2021/12/30 12:34:53;;;;;;;0.70;0.70;;;16.10;99.90;;;;;;10497727;28;20233;-83
2021/12/30 12:39:57;;;;;;;1.07;1.00;;;16.20;99.90;;;;;;10533750;28;20208;-83
2021/12/30 12:45:20;;;;;;;3.03;1.67;;;16.20;99.90;;;;;;10567051;22;20223;-80
2021/12/30 12:50:38;;;;;;;0.77;0.77;;;16.20;99.90;;;;;;10461525;28;20644;-77
2021/12/30 12:55:40;;;;;;;0.80;0.80;;;16.10;99.90;;;;;;10460745;28;20311;-78
2021/12/30 13:00:44;;;;;;;1.20;1.20;;;16.00;99.90;;;;;;10445102;28;20198;-78
2021/12/30 13:05:59;;;;;;;1.13;1.00;;;16.00;99.90;;;;;;10441433;28;20243;-78
2021/12/30 13:11:03;;;;;;;0.90;0.90;;;16.00;99.90;;;;;;10445271;28;20232;-78
2021/12/30 13:16:20;;;;;;;0.87;0.87;;;16.10;99.90;;;;;;10440059;28;20221;-78
2021/12/30 13:21:22;;;;;;;0.97;0.97;;;16.10;99.90;;;;;;10443438;28;20198;-78
2021/12/30 13:26:27;;;;;;;1.00;1.00;;;16.10;99.90;;;;;;10440958;28;20225;-79
2021/12/30 13:31:32;;;;;;;1.33;1.23;;;16.10;99.90;;;;;;10442129;28;20646;-78
2021/12/30 13:36:34;;;;;;;1.30;1.00;;;16.10;99.90;;;;;;10445972;28;20221;-78
2021/12/30 13:41:37;;;;;;;1.07;0.90;;;16.00;99.90;;;;;;10443348;28;20209;-78
2021/12/30 13:46:40;;;;;;;1.00;1.00;;;16.00;99.90;;;;;;10469237;28;20216;-78
2021/12/30 13:51:43;;;;;;;1.10;1.10;;;15.90;99.90;;;;;;10473517;28;20204;-79
2021/12/30 13:56:45;;;;;;;1.00;1.00;;;15.90;99.90;;;;;;10491612;28;20216;-79
2021/12/30 14:01:48;;;;;;;2.00;1.90;;;15.80;99.90;;;;;;10464269;28;20208;-79
2021/12/30 14:06:53;;;;;;;1.20;1.20;;;15.70;99.90;;;;;;10489728;28;20312;-78
2021/12/30 14:11:56;;;;;;;1.47;1.30;;;15.70;99.90;;;;;;10473115;28;20281;-79
2021/12/30 14:17:04;;;;;;;1.00;1.00;;;15.60;99.90;;;;;;10491123;28;20212;-79
2021/12/30 14:22:08;;;;;;;1.57;1.20;;;15.50;99.90;;;;;;10465618;28;20192;-79
2021/12/30 14:27:14;;;;;;;1.93;1.53;;;15.50;99.90;;;;;;10478696;28;20217;-79
2021/12/30 14:32:23;;;;;;;1.40;1.30;;;15.50;99.90;;;;;;10485188;28;20675;-79
2021/12/30 14:37:28;;;;;;;1.10;1.00;;;15.40;99.90;;;;;;10464763;28;20218;-79
2021/12/30 14:42:31;;;;;;;1.23;1.13;;;15.50;99.90;;;;;;10488472;28;20552;-79
2021/12/30 14:47:36;;;;;;;1.50;1.40;;;15.40;99.90;;;;;;10493076;28;20235;-79
2021/12/30 14:52:40;;;;;;;2.00;1.90;;;15.40;99.90;;;;;;10469167;28;20670;-79
2021/12/30 14:57:43;;;;;;;1.83;1.73;;;15.30;99.90;;;;;;10494059;28;20674;-79
2021/12/30 15:02:48;;;;;;;1.50;1.40;;;15.30;99.90;;;;;;10473627;28;20232;-79
2021/12/30 15:07:51;;;;;;;5.40;1.77;;;15.30;99.90;;;;;;10471797;28;20217;-79
2021/12/30 15:12:54;;;;;;;1.90;1.80;;;15.20;99.90;;;;;;10475416;28;20672;-79
2021/12/30 15:17:59;;;;;;;1.43;1.33;;;15.10;99.90;;;;;;10487251;28;20241;-79
2021/12/30 15:23:02;;;;;;;1.00;1.00;;;15.10;99.90;;;;;;10472669;28;20279;-78
2021/12/30 15:28:05;;;;;;;1.13;1.03;;;15.10;99.90;;;;;;10482484;28;20220;-78
2021/12/30 15:33:08;;;;;;;1.67;1.40;;;15.10;99.90;;;;;;10463272;28;20207;-78
2021/12/30 15:38:11;;;;;;;1.37;1.27;;;15.20;99.90;;;;;;10477471;28;20619;-78
2021/12/30 15:43:13;;;;;;;0.90;0.90;;;15.10;99.90;;;;;;10445446;28;20229;-78
2021/12/30 15:48:17;;;;;;;0.90;0.90;;;15.20;99.90;;;;;;10479144;28;20220;-78
2021/12/30 15:53:20;;;;;;;1.20;1.10;;;15.20;99.90;;;;;;10463113;28;20207;-78
2021/12/30 15:58:23;;;;;;;1.00;1.00;;;15.20;99.90;;;;;;10473349;28;20201;-78
2021/12/30 16:03:27;;;;;;;1.00;1.00;;;15.20;99.90;;;;;;10484418;28;20492;-79
2021/12/30 16:08:29;;;;;;;1.30;1.20;;;15.20;99.90;;;;;;10482873;28;20222;-79
2021/12/30 16:13:31;;;;;;;1.57;1.47;;;15.20;99.90;;;;;;10486110;28;20200;-78
2021/12/30 16:18:35;;;;;;;1.47;1.37;;;15.20;99.90;;;;;;10457143;28;20221;-78
2021/12/30 16:23:37;;;;;;;1.40;1.30;;;15.20;99.90;;;;;;10452622;28;20200;-78
2021/12/30 16:28:40;;;;;;;2.37;2.20;;;15.20;99.90;;;;;;10478857;28;20703;-79
2021/12/30 16:33:43;;;;;;;1.80;1.70;;;15.10;99.90;;;;;;10477349;28;20644;-79
2021/12/30 16:38:45;;;;;;;1.67;1.57;;;15.10;99.90;;;;;;10486030;28;20702;-78
2021/12/30 16:43:48;;;;;;;1.87;1.77;;;15.00;99.90;;;;;;10489813;28;20201;-78
2021/12/30 16:48:51;;;;;;;1.60;1.50;;;14.90;99.90;;;;;;10491023;28;20225;-78
2021/12/30 16:53:53;;;;;;;1.70;1.60;;;14.90;99.90;;;;;;10496542;28;20200;-78
2021/12/30 16:58:55;;;;;;;1.80;1.43;;;14.90;99.90;;;;;;10475290;28;20208;-78
2021/12/30 17:03:58;;;;;;;1.67;1.57;;;14.90;99.90;;;;;;10475689;28;20193;-78
2021/12/30 17:09:01;;;;;;;1.60;1.50;;;14.90;99.90;;;;;;10482168;28;20293;-78
2021/12/30 17:14:03;;;;;;;1.70;1.60;;;14.90;99.90;;;;;;10477867;28;20193;-78
2021/12/30 17:19:06;;;;;;;1.73;1.63;;;14.90;99.90;;;;;;10453224;28;20224;-78
2021/12/30 17:24:09;;;;;;;3.40;2.93;;;14.90;99.90;;;;;;10514248;28;20204;-78
2021/12/30 17:29:11;;;;;;;6.70;5.80;;;14.90;99.90;;;;;;10498495;28;20848;-79
2021/12/30 17:34:15;;;;;;;4.03;3.70;;;14.90;99.90;;;;;;10497432;28;20223;-79
2021/12/30 17:39:17;;;;;;;2.07;1.90;;;14.80;99.90;;;;;;10503167;28;20245;-79
2021/12/30 17:44:20;;;;;;;2.27;2.10;;;14.90;99.90;;;;;;10496653;28;21043;-79
2021/12/30 17:49:23;;;;;;;1.77;1.67;;;14.80;99.90;;;;;;10489583;28;20259;-81
2021/12/30 17:54:26;;;;;;;1.50;1.40;;;14.80;99.90;;;;;;10477112;28;20201;-78
2021/12/30 17:59:28;;;;;;;2.40;1.40;;;14.90;99.90;;;;;;10452784;28;20307;-78
2021/12/30 18:04:35;;;;;;;1.10;1.10;;;14.90;99.90;;;;;;10446986;28;20236;-78
2021/12/30 18:09:40;;;;;;;1.53;1.43;;;14.90;99.90;;;;;;10481413;28;20227;-79
2021/12/30 18:14:42;;;;;;;1.30;1.20;;;14.90;99.90;;;;;;10483356;28;20276;-79
2021/12/30 18:19:46;;;;;;;1.30;1.30;;;14.90;99.90;;;;;;10476432;28;20216;-79
2021/12/30 18:24:49;;;;;;;0.93;0.93;;;14.90;99.90;;;;;;10498812;28;20216;-78
2021/12/30 18:29:51;;;;;;;1.53;1.20;;;14.90;99.90;;;;;;10467098;28;20699;-78
2021/12/30 18:34:55;;;;;;;1.30;1.20;;;14.90;99.90;;;;;;10488451;28;20230;-78
2021/12/30 18:39:58;;;;;;;1.87;1.30;;;14.90;99.90;;;;;;10495124;28;20215;-78
2021/12/30 18:45:00;;;;;;;2.10;1.70;;;14.90;99.90;;;;;;10477368;28;20240;-79
2021/12/30 18:50:06;;;;;;;1.53;1.43;;;14.80;99.90;;;;;;10470440;22;20236;-77
2021/12/30 18:55:09;;;;;;;4.97;2.10;;;14.80;99.90;;;;;;10431895;28;20668;-78
2021/12/30 19:00:15;;;;;;;1.50;1.40;;;14.70;99.90;;;;;;10442281;28;20218;-77
2021/12/30 19:05:20;;;;;;;1.67;1.57;;;14.70;99.90;;;;;;10418173;28;20209;-77
2021/12/30 19:10:24;;;;;;;1.50;1.40;;;14.70;99.90;;;;;;10446020;28;20308;-77
2021/12/30 19:15:29;;;;;;;1.50;1.40;;;14.70;99.90;;;;;;10452536;28;20195;-78
2021/12/30 19:20:32;;;;;;;1.70;1.60;;;14.70;99.90;;;;;;10429174;28;20200;-79
2021/12/30 19:25:35;;;;;;;1.73;1.63;;;14.80;99.90;;;;;;10430826;28;20689;-78
2021/12/30 19:30:39;;;;;;;1.53;1.30;;;14.80;99.90;;;;;;10447740;28;20198;-77
2021/12/30 19:35:43;;;;;;;1.73;1.63;;;14.80;99.90;;;;;;10409007;28;20308;-78
2021/12/30 19:40:46;;;;;;;1.50;1.40;;;14.90;99.90;;;;;;10443775;28;20204;-77
2021/12/30 19:45:49;;;;;;;1.50;1.43;;;14.80;99.90;;;;;;10420327;28;20225;-77
2021/12/30 19:50:53;;;;;;;1.30;1.30;;;14.80;99.90;;;;;;10423422;28;20543;-77
2021/12/30 19:55:55;;;;;;;1.60;1.50;;;14.80;99.90;;;;;;10428287;28;20210;-79
2021/12/30 20:00:57;;;;;;;1.30;1.20;;;14.90;99.90;;;;;;10448514;28;20285;-77
2021/12/30 20:06:02;;;;;;;4.53;1.27;;;14.90;99.90;;;;;;10435624;28;20237;-76
2021/12/30 20:11:04;;;;;;;1.50;1.40;;;14.90;99.90;;;;;;10450943;28;20201;-77
2021/12/30 20:16:06;;;;;;;1.40;1.40;;;14.90;99.90;;;;;;10448791;28;20715;-77
2021/12/30 20:21:10;;;;;;;1.37;1.27;;;14.90;99.90;;;;;;10454039;28;20244;-79
2021/12/30 20:26:12;;;;;;;1.73;1.63;;;14.90;99.90;;;;;;10456725;28;20602;-77
2021/12/30 20:31:15;;;;;;;1.67;1.57;;;14.90;99.90;;;;;;10462291;28;20237;-80
2021/12/30 20:36:20;;;;;;;2.10;1.93;;;14.90;99.90;;;;;;10463078;28;20217;-78
2021/12/30 20:41:22;;;;;;;1.23;1.13;;;14.90;99.90;;;;;;10440110;28;20213;-78
2021/12/30 20:46:25;;;;;;;5.03;1.87;;;14.90;99.90;;;;;;10460580;28;20689;-81
2021/12/30 20:51:28;;;;;;;2.40;2.20;;;14.90;99.90;;;;;;10459817;28;20206;-81
2021/12/30 20:56:31;;;;;;;1.80;1.70;;;14.80;99.90;;;;;;10445662;28;20739;-81
2021/12/30 21:01:35;;;;;;;2.00;1.90;;;14.80;99.90;;;;;;10467601;28;20648;-80
2021/12/30 21:06:39;;;;;;;2.17;2.07;;;14.80;99.90;;;;;;10432753;28;20520;-80
2021/12/30 21:11:41;;;;;;;2.67;2.47;;;14.70;99.90;;;;;;10456899;28;20211;-80
2021/12/30 21:16:43;;;;;;;1.97;1.87;;;14.70;99.90;;;;;;10457861;28;20671;-79
2021/12/30 21:21:46;;;;;;;1.97;1.87;;;14.70;99.90;;;;;;10440845;28;20216;-79
2021/12/30 21:26:48;;;;;;;2.00;1.83;;;14.70;99.90;;;;;;10440917;28;20247;-80
2021/12/30 21:31:51;;;;;;;1.87;1.77;;;14.70;99.90;;;;;;10460850;28;20251;-79
2021/12/30 21:36:56;;;;;;;1.60;1.50;;;14.70;99.90;;;;;;10457013;28;20697;-80
2021/12/30 21:41:59;;;;;;;1.80;1.70;;;14.80;99.90;;;;;;10441109;28;20653;-80
2021/12/30 21:47:01;;;;;;;1.60;1.50;;;14.70;99.90;;;;;;10421130;28;20232;-77
2021/12/30 21:52:05;;;;;;;1.70;1.60;;;14.80;99.90;;;;;;10429330;28;20197;-79
2021/12/30 21:57:07;;;;;;;1.80;1.70;;;14.80;99.90;;;;;;10438129;28;20225;-77
2021/12/30 22:02:09;;;;;;;1.47;1.40;;;14.80;99.90;;;;;;10450286;28;20673;-77
2021/12/30 22:07:12;;;;;;;1.77;1.50;;;14.80;99.90;;;;;;10424670;28;20251;-77
2021/12/30 22:12:14;;;;;;;1.60;1.50;;;14.80;99.90;;;;;;10446632;28;20648;-77
2021/12/30 22:17:17;;;;;;;1.70;1.60;;;14.80;99.90;;;;;;10453282;28;20296;-77
2021/12/30 22:22:20;;;;;;;2.00;1.50;;;14.80;99.90;;;;;;10423277;28;20205;-77
2021/12/30 22:27:23;;;;;;;4.00;1.83;;;14.70;99.90;;;;;;10423380;28;20622;-77
2021/12/30 22:32:26;;;;;;;1.90;1.80;;;14.70;99.90;;;;;;10414961;28;20544;-77
2021/12/30 22:37:29;;;;;;;1.93;1.83;;;14.70;99.90;;;;;;10416459;28;20225;-77
2021/12/30 22:42:32;;;;;;;1.70;1.57;;;14.70;99.90;;;;;;10451711;28;20276;-78
2021/12/30 22:47:34;;;;;;;1.70;1.60;;;14.60;99.90;;;;;;10453468;28;20236;-77
2021/12/30 22:52:38;;;;;;;1.90;1.80;;;14.60;99.90;;;;;;10440795;28;20201;-77
2021/12/30 22:57:40;;;;;;;1.80;1.70;;;14.60;99.90;;;;;;10407903;28;20232;-77
2021/12/30 23:02:42;;;;;;;1.93;1.83;;;14.60;99.90;;;;;;10432769;28;20193;-77
2021/12/30 23:07:45;;;;;;;1.80;1.70;;;14.60;99.90;;;;;;10433206;28;20313;-78
2021/12/30 23:12:48;;;;;;;1.80;1.70;;;14.60;99.90;;;;;;10436059;28;20707;-79
2021/12/30 23:17:51;;;;;;;1.80;1.70;;;14.60;99.90;;;;;;10435871;28;20236;-79
2021/12/30 23:22:55;;;;;;;2.93;1.93;;;14.60;99.90;;;;;;10430538;28;20204;-78
2021/12/30 23:27:57;;;;;;;1.83;1.73;;;14.60;99.90;;;;;;10449257;28;20672;-77
2021/12/30 23:32:59;;;;;;;1.90;1.80;;;14.60;99.90;;;;;;10432696;28;20204;-79
2021/12/30 23:38:04;;;;;;;1.63;1.53;;;14.60;99.90;;;;;;10446312;28;20651;-79
2021/12/30 23:43:06;;;;;;;3.33;1.70;;;14.60;99.90;;;;;;10429663;28;20256;-79
2021/12/30 23:48:09;;;;;;;1.70;1.60;;;14.50;99.90;;;;;;10436787;28;20220;-79
2021/12/30 23:53:13;;;;;;;2.00;1.90;;;14.60;99.90;;;;;;10413762;28;20197;-78
2021/12/30 23:58:15;;;;;;;1.37;1.27;;;14.60;99.90;;;;;;10418883;28;20220;-78
